Terminal Aerodrome Forecast
Issued by NWS

Home | Current Version | Previous Version | Text Only | Print | Product List | Glossary On
Versions: 1 2 3 4 5 6 7 8 9 10 11 12 13 14 15 16 17 18 19 20 21 22 23
000
FTUS41 KCAR 180900 AAA
TAFHUL
TAF AMD
KHUL 180900Z 1809/1906 VRB03KT P6SM BKN006 OVC050
     FM181300 23007KT P6SM BKN020
     FM181730 31009KT P6SM SCT250
     FM190300 32005KT P6SM FEW090=

USA.gov is the U.S. government's official web portal to all federal, state and local government web resources and services.